Time;durP1;ratioP1;P1;durP2;ratioP2;P2;SDS_P1;SDS_P2;PMS_P1;PMS_P2;Temp;Humidity;BMP_temperature;BMP_pressure;BME280_temperature;BME280_humidity;BME280_pressure;Samples;Min_cycle;Max_cycle;Signal;HPM_P1;HPM_P2
2023/07/31 00:00:00;;;;;;;4.97;3.22;;;15.70;99.90;;;;;;5088668;28;20442;-43
2023/07/31 00:02:26;;;;;;;4.95;3.20;;;15.70;99.90;;;;;;5088716;28;20023;-45
2023/07/31 00:04:51;;;;;;;5.35;2.78;;;15.70;99.90;;;;;;5088775;28;20477;-43
2023/07/31 00:07:18;;;;;;;5.72;2.75;;;15.70;99.90;;;;;;5070821;28;20024;-44
2023/07/31 00:09:43;;;;;;;3.97;2.45;;;15.70;99.90;;;;;;5088807;28;20055;-45
2023/07/31 00:12:09;;;;;;;6.60;3.10;;;15.70;99.90;;;;;;5089254;28;20078;-43
2023/07/31 00:14:34;;;;;;;6.70;2.72;;;15.80;99.90;;;;;;5088298;28;20024;-46
2023/07/31 00:17:00;;;;;;;6.03;2.53;;;15.70;99.90;;;;;;5088563;28;20035;-44
2023/07/31 00:19:25;;;;;;;4.43;2.92;;;15.70;99.90;;;;;;5070633;28;20310;-44
2023/07/31 00:21:51;;;;;;;7.03;2.55;;;15.70;99.90;;;;;;5088722;28;20027;-43
2023/07/31 00:24:16;;;;;;;4.10;2.72;;;15.70;99.90;;;;;;5088838;28;20051;-43
2023/07/31 00:26:41;;;;;;;6.32;3.20;;;15.70;99.90;;;;;;5092921;28;20038;-43
2023/07/31 00:29:07;;;;;;;4.55;2.65;;;15.70;99.90;;;;;;5092686;28;20039;-44
2023/07/31 00:31:33;;;;;;;7.90;3.35;;;15.70;99.90;;;;;;5092462;28;20416;-43
2023/07/31 00:33:58;;;;;;;4.43;2.92;;;15.70;99.90;;;;;;5091870;28;20069;-45
2023/07/31 00:36:24;;;;;;;7.32;2.90;;;15.60;99.90;;;;;;5091560;28;20601;-45
2023/07/31 00:38:49;;;;;;;6.00;3.03;;;15.70;99.90;;;;;;5091362;28;20016;-44
2023/07/31 00:41:15;;;;;;;9.73;3.65;;;15.60;99.90;;;;;;5091004;28;20032;-45
2023/07/31 00:43:40;;;;;;;4.82;3.17;;;15.60;99.90;;;;;;5090720;28;20027;-44
2023/07/31 00:46:06;;;;;;;7.70;3.05;;;15.60;99.90;;;;;;5090134;28;20031;-44
2023/07/31 00:48:33;;;;;;;4.38;2.88;;;15.60;99.90;;;;;;5090927;28;20031;-43
2023/07/31 00:51:00;;;;;;;5.28;2.67;;;15.60;99.90;;;;;;5090886;28;20024;-43
2023/07/31 00:53:27;;;;;;;7.68;3.20;;;15.60;99.90;;;;;;5090604;28;20084;-45
2023/07/31 00:55:53;;;;;;;8.50;3.45;;;15.60;99.90;;;;;;5090798;28;20417;-44
2023/07/31 00:58:18;;;;;;;7.63;3.30;;;15.60;99.90;;;;;;5090964;28;20032;-44
2023/07/31 01:00:44;;;;;;;7.15;3.05;;;15.60;99.90;;;;;;5072527;28;20167;-45
2023/07/31 01:03:10;;;;;;;5.97;3.45;;;15.60;99.90;;;;;;5072270;28;20350;-43
2023/07/31 01:05:59;;;;;;;8.15;3.20;;;15.60;99.90;;;;;;5091940;28;20065;-43
2023/07/31 01:08:39;;;;;;;4.93;2.88;;;15.60;99.90;;;;;;5091502;28;20478;-45
2023/07/31 01:11:17;;;;;;;6.05;2.75;;;15.60;99.90;;;;;;5091771;28;20327;-43
2023/07/31 01:13:44;;;;;;;7.10;3.65;;;15.60;99.90;;;;;;5091118;28;20027;-44
2023/07/31 01:16:09;;;;;;;7.43;3.10;;;15.50;99.90;;;;;;5091483;28;20060;-43
2023/07/31 01:18:35;;;;;;;7.72;3.33;;;15.60;99.90;;;;;;5091722;28;20042;-45
2023/07/31 01:21:17;;;;;;;5.18;2.80;;;15.50;99.90;;;;;;5091717;28;20012;-45
2023/07/31 01:23:59;;;;;;;6.53;2.95;;;15.50;99.90;;;;;;5073259;28;20016;-44
2023/07/31 01:26:31;;;;;;;5.53;3.05;;;15.50;99.90;;;;;;5091877;28;20036;-43
2023/07/31 01:29:01;;;;;;;8.75;4.05;;;15.50;99.90;;;;;;5073191;28;20165;-43
2023/07/31 01:31:29;;;;;;;9.07;3.67;;;15.40;99.90;;;;;;5091302;28;20061;-45
2023/07/31 01:33:59;;;;;;;6.93;3.92;;;15.40;99.90;;;;;;5090915;28;20020;-45
2023/07/31 01:36:25;;;;;;;5.63;2.67;;;15.40;99.90;;;;;;5072972;28;20100;-43
2023/07/31 01:38:51;;;;;;;7.68;3.67;;;15.40;99.90;;;;;;5091280;28;20282;-45
2023/07/31 01:41:18;;;;;;;8.00;3.10;;;15.40;99.90;;;;;;5091215;28;20669;-43
2023/07/31 01:43:44;;;;;;;7.85;3.15;;;15.40;99.90;;;;;;5091118;28;20019;-46
2023/07/31 01:46:09;;;;;;;6.45;3.85;;;15.40;99.90;;;;;;5091656;28;20024;-44
2023/07/31 01:48:36;;;;;;;6.40;3.97;;;15.40;99.90;;;;;;5091445;28;20421;-43
2023/07/31 01:51:02;;;;;;;7.28;3.50;;;15.40;99.90;;;;;;5091066;28;20020;-45
2023/07/31 01:53:30;;;;;;;5.80;3.80;;;15.40;99.90;;;;;;5091053;28;20024;-43
2023/07/31 01:55:55;;;;;;;7.93;3.70;;;15.30;99.90;;;;;;5072984;28;20035;-46
2023/07/31 01:58:21;;;;;;;5.95;3.10;;;15.30;99.90;;;;;;5091121;28;20024;-44
2023/07/31 02:00:46;;;;;;;8.25;3.70;;;15.40;99.90;;;;;;5090831;28;20024;-44
2023/07/31 02:03:12;;;;;;;10.73;3.85;;;15.30;99.90;;;;;;5090808;28;20047;-46
2023/07/31 02:05:44;;;;;;;11.13;3.60;;;15.30;99.90;;;;;;5090466;28;20024;-45
2023/07/31 02:08:10;;;;;;;11.45;3.78;;;15.40;99.90;;;;;;5090955;28;20020;-44
2023/07/31 02:10:35;;;;;;;6.53;3.97;;;15.40;99.90;;;;;;5090739;28;20023;-45
2023/07/31 02:13:01;;;;;;;5.13;3.45;;;15.40;99.90;;;;;;5090485;28;20031;-43
2023/07/31 02:15:26;;;;;;;9.73;3.65;;;15.40;99.90;;;;;;5090151;28;20502;-45
2023/07/31 02:17:52;;;;;;;9.18;3.75;;;15.40;99.90;;;;;;5090557;28;20016;-45
2023/07/31 02:20:17;;;;;;;8.18;3.65;;;15.40;99.90;;;;;;5090989;28;20024;-44
2023/07/31 02:22:43;;;;;;;10.48;4.15;;;15.40;99.90;;;;;;5090648;28;20583;-44
2023/07/31 02:25:08;;;;;;;10.63;3.72;;;15.40;99.90;;;;;;5090026;28;20492;-44
2023/07/31 02:27:33;;;;;;;9.48;4.05;;;15.40;99.90;;;;;;5090413;28;20042;-45
2023/07/31 02:29:59;;;;;;;8.57;4.88;;;15.40;99.90;;;;;;5090229;28;20020;-44
2023/07/31 02:32:24;;;;;;;11.55;4.85;;;15.30;99.90;;;;;;5089797;28;20042;-43
2023/07/31 02:34:50;;;;;;;6.80;3.60;;;15.30;99.90;;;;;;5089948;28;20024;-43
2023/07/31 02:37:15;;;;;;;10.30;3.95;;;15.30;99.90;;;;;;5089992;28;20032;-45
2023/07/31 02:39:41;;;;;;;7.85;4.15;;;15.20;99.90;;;;;;5090117;28;20062;-46
2023/07/31 02:42:06;;;;;;;7.75;3.53;;;15.30;99.90;;;;;;5090157;28;20477;-43
2023/07/31 02:44:32;;;;;;;7.45;3.22;;;15.20;99.90;;;;;;5089598;28;20054;-45
2023/07/31 02:46:57;;;;;;;8.40;4.22;;;15.30;99.90;;;;;;5089301;28;20354;-43
2023/07/31 02:49:23;;;;;;;9.88;3.92;;;15.20;99.90;;;;;;5089727;28;20158;-44
2023/07/31 02:51:48;;;;;;;3.97;2.67;;;15.20;99.90;;;;;;5071596;28;20085;-44
2023/07/31 02:54:14;;;;;;;6.72;4.05;;;15.20;99.90;;;;;;5071143;28;20023;-44
2023/07/31 02:56:39;;;;;;;7.13;3.20;;;15.20;99.90;;;;;;5089512;28;20100;-43
2023/07/31 02:59:05;;;;;;;5.90;3.05;;;15.20;99.90;;;;;;5089864;28;20024;-43
2023/07/31 03:01:31;;;;;;;6.10;2.80;;;15.20;99.90;;;;;;5089804;28;20054;-43
2023/07/31 03:03:56;;;;;;;3.90;3.05;;;15.20;99.90;;;;;;5089499;28;20493;-43
2023/07/31 03:06:22;;;;;;;5.78;2.90;;;15.20;99.90;;;;;;5089362;28;20447;-45
2023/07/31 03:08:48;;;;;;;7.28;2.90;;;15.20;99.90;;;;;;5089624;28;20044;-45
2023/07/31 03:11:13;;;;;;;7.28;2.83;;;15.20;99.90;;;;;;5089564;28;20028;-43
2023/07/31 03:13:39;;;;;;;5.70;2.53;;;15.20;99.90;;;;;;5089188;28;20324;-46
2023/07/31 03:16:04;;;;;;;5.93;3.08;;;15.20;99.90;;;;;;5089310;28;20109;-44
2023/07/31 03:18:30;;;;;;;3.30;2.47;;;15.20;99.90;;;;;;5089574;28;20016;-43
2023/07/31 03:20:55;;;;;;;5.82;3.20;;;15.20;99.90;;;;;;5089567;28;20047;-45
2023/07/31 03:23:21;;;;;;;6.60;2.55;;;15.20;99.90;;;;;;5089459;28;20522;-45
2023/07/31 03:26:00;;;;;;;6.00;3.08;;;15.20;99.90;;;;;;5089870;28;20461;-43
2023/07/31 03:28:26;;;;;;;4.40;2.83;;;15.20;99.90;;;;;;5089312;28;20454;-43
2023/07/31 03:30:52;;;;;;;4.38;2.50;;;15.20;99.90;;;;;;5089639;28;20040;-47
2023/07/31 03:33:18;;;;;;;4.53;3.00;;;15.20;99.90;;;;;;5070992;28;20028;-43
2023/07/31 03:35:43;;;;;;;4.07;2.45;;;15.20;99.90;;;;;;5089265;28;20092;-43
2023/07/31 03:38:09;;;;;;;6.82;2.67;;;15.20;99.90;;;;;;5089158;28;20495;-43
2023/07/31 03:40:34;;;;;;;5.40;2.67;;;15.20;99.90;;;;;;5089536;28;20325;-43
2023/07/31 03:43:00;;;;;;;5.55;2.53;;;15.20;99.90;;;;;;5089045;28;20085;-43
2023/07/31 03:45:25;;;;;;;7.25;3.08;;;15.20;99.90;;;;;;5088756;28;20327;-46
2023/07/31 03:47:51;;;;;;;6.85;2.60;;;15.30;99.90;;;;;;5086547;28;20051;-43
2023/07/31 03:50:17;;;;;;;6.38;3.10;;;15.20;99.90;;;;;;5088895;28;20046;-44
2023/07/31 03:52:42;;;;;;;4.53;2.90;;;15.20;99.90;;;;;;5089008;28;20089;-43
2023/07/31 03:55:08;;;;;;;5.10;2.75;;;15.20;99.90;;;;;;5089063;28;20036;-44
2023/07/31 03:57:34;;;;;;;4.13;2.45;;;15.20;99.90;;;;;;5088763;28;20099;-43
2023/07/31 03:59:59;;;;;;;6.13;3.00;;;15.20;99.90;;;;;;5095590;28;20020;-44
2023/07/31 04:02:25;;;;;;;3.60;2.92;;;15.20;99.90;;;;;;5095676;28;20095;-45
2023/07/31 04:04:50;;;;;;;5.38;3.17;;;15.20;99.90;;;;;;5095400;28;20068;-43
2023/07/31 04:07:16;;;;;;;6.75;2.70;;;15.20;99.90;;;;;;5095626;28;20036;-45
2023/07/31 04:09:41;;;;;;;3.88;2.78;;;15.20;99.90;;;;;;5095437;28;20024;-45
2023/07/31 04:12:07;;;;;;;6.47;3.00;;;15.20;99.90;;;;;;5077460;28;20024;-44
2023/07/31 04:14:32;;;;;;;5.78;3.03;;;15.20;99.90;;;;;;5094945;28;20107;-44
2023/07/31 04:16:58;;;;;;;4.93;3.20;;;15.20;99.90;;;;;;5094819;28;20035;-42
2023/07/31 04:19:24;;;;;;;5.28;2.72;;;15.20;99.90;;;;;;5095332;28;20031;-42
2023/07/31 04:21:49;;;;;;;7.60;3.42;;;15.30;99.90;;;;;;5095264;28;20024;-43
2023/07/31 04:24:15;;;;;;;4.28;3.17;;;15.30;99.90;;;;;;5094742;28;20508;-43
2023/07/31 04:26:41;;;;;;;3.10;2.70;;;15.30;99.90;;;;;;5095524;28;20477;-45
2023/07/31 04:29:07;;;;;;;4.85;2.80;;;15.30;99.90;;;;;;5095568;28;20089;-43
2023/07/31 04:31:33;;;;;;;4.88;3.25;;;15.30;99.90;;;;;;5095515;28;20449;-42
2023/07/31 04:33:58;;;;;;;5.82;3.25;;;15.30;99.90;;;;;;5103183;28;20103;-43
2023/07/31 04:36:24;;;;;;;9.20;3.22;;;15.30;99.90;;;;;;5095041;28;20107;-46
2023/07/31 04:38:49;;;;;;;8.73;3.08;;;15.30;99.90;;;;;;5095239;28;20553;-43
2023/07/31 04:41:15;;;;;;;7.70;2.95;;;15.30;99.90;;;;;;5095223;28;20016;-44
2023/07/31 04:43:40;;;;;;;7.43;2.58;;;15.30;99.90;;;;;;5094787;28;20434;-43
2023/07/31 04:46:06;;;;;;;6.35;2.83;;;15.40;99.90;;;;;;5095092;28;20059;-43
2023/07/31 04:48:31;;;;;;;5.50;3.03;;;15.30;99.90;;;;;;5095220;28;20023;-43
2023/07/31 04:50:57;;;;;;;5.75;2.33;;;15.40;99.90;;;;;;5095218;28;20023;-46
2023/07/31 04:53:23;;;;;;;5.85;3.30;;;15.40;99.90;;;;;;5095422;28;20431;-43
2023/07/31 04:55:48;;;;;;;4.95;2.50;;;15.40;99.90;;;;;;5095296;28;20032;-44
2023/07/31 04:58:14;;;;;;;3.72;2.85;;;15.40;99.90;;;;;;5095224;28;20099;-43
2023/07/31 05:00:40;;;;;;;4.20;2.45;;;15.40;99.90;;;;;;5095451;28;20085;-45
2023/07/31 05:03:06;;;;;;;6.18;3.05;;;15.40;99.90;;;;;;5095051;28;20020;-44
2023/07/31 05:05:31;;;;;;;4.03;3.03;;;15.40;99.90;;;;;;5094824;28;20012;-44
2023/07/31 05:07:57;;;;;;;3.70;2.22;;;15.50;99.90;;;;;;5095059;28;20043;-44
2023/07/31 05:10:22;;;;;;;4.88;2.60;;;15.50;99.90;;;;;;5092459;28;20051;-43
2023/07/31 05:12:48;;;;;;;5.38;2.33;;;15.50;99.90;;;;;;5091603;28;20107;-44
2023/07/31 05:15:13;;;;;;;3.25;2.05;;;15.50;99.90;;;;;;5091399;28;20038;-44
2023/07/31 05:17:39;;;;;;;4.72;2.30;;;15.50;99.90;;;;;;5091557;28;20012;-43
2023/07/31 05:20:24;;;;;;;3.03;2.05;;;15.50;99.90;;;;;;5091756;28;20017;-43
2023/07/31 05:22:51;;;;;;;4.53;2.30;;;15.50;99.90;;;;;;5028396;28;20056;-42
2023/07/31 05:25:16;;;;;;;9.88;5.25;;;15.50;99.90;;;;;;5028634;28;20161;-43
2023/07/31 05:27:42;;;;;;;7.60;4.38;;;15.50;99.90;;;;;;5051979;28;20659;-44
2023/07/31 05:30:08;;;;;;;3.25;2.08;;;15.50;99.90;;;;;;5091739;28;20437;-47
2023/07/31 05:32:33;;;;;;;3.75;1.98;;;15.50;99.90;;;;;;5091428;28;20023;-45
2023/07/31 05:34:59;;;;;;;4.53;1.85;;;15.40;99.90;;;;;;5091326;28;20472;-43
2023/07/31 05:37:24;;;;;;;3.85;1.90;;;15.40;99.90;;;;;;5091563;28;20032;-44
2023/07/31 05:39:51;;;;;;;2.88;1.80;;;15.30;99.90;;;;;;5091840;28;20074;-44
2023/07/31 05:42:16;;;;;;;6.32;1.77;;;15.30;99.90;;;;;;5091305;28;20020;-44
2023/07/31 05:44:42;;;;;;;2.13;1.80;;;15.30;99.90;;;;;;5091066;28;20091;-43
2023/07/31 05:47:07;;;;;;;2.88;1.88;;;15.20;99.90;;;;;;5091771;28;20036;-45
2023/07/31 05:49:33;;;;;;;2.30;1.77;;;15.20;99.90;;;;;;5091543;28;20035;-47
2023/07/31 05:51:59;;;;;;;3.80;1.98;;;15.20;99.90;;;;;;5090938;28;20042;-43
2023/07/31 05:54:24;;;;;;;9.18;2.08;;;15.30;99.90;;;;;;5090776;28;20103;-44
2023/07/31 05:56:50;;;;;;;2.50;1.90;;;15.20;99.90;;;;;;5091253;28;20027;-44
2023/07/31 05:59:16;;;;;;;5.55;2.35;;;15.20;99.90;;;;;;5091729;28;20059;-43
2023/07/31 06:01:42;;;;;;;2.22;1.67;;;15.10;99.90;;;;;;5073129;28;20020;-44
2023/07/31 06:04:07;;;;;;;2.33;1.65;;;15.10;99.90;;;;;;5090645;28;20028;-44
2023/07/31 06:06:33;;;;;;;2.50;1.77;;;15.10;99.90;;;;;;5091024;28;20389;-44
2023/07/31 06:08:59;;;;;;;5.68;1.83;;;15.10;99.90;;;;;;5090929;28;20031;-43
2023/07/31 06:11:24;;;;;;;2.30;1.83;;;15.10;99.90;;;;;;5090748;28;20024;-44
2023/07/31 06:13:50;;;;;;;3.05;1.95;;;15.10;99.90;;;;;;5090340;28;20020;-43
2023/07/31 06:16:16;;;;;;;2.70;1.92;;;15.10;99.90;;;;;;5090563;28;20027;-43
2023/07/31 06:18:42;;;;;;;1.88;1.40;;;15.10;99.90;;;;;;5090826;28;20023;-43
2023/07/31 06:21:09;;;;;;;3.30;1.80;;;15.00;99.90;;;;;;5089907;28;20028;-43
2023/07/31 06:23:34;;;;;;;2.70;1.63;;;15.00;99.90;;;;;;5071500;28;20004;-45
2023/07/31 06:25:59;;;;;;;2.00;1.52;;;15.00;99.90;;;;;;5090336;28;20016;-43
2023/07/31 06:28:29;;;;;;;2.63;1.92;;;15.00;99.90;;;;;;5090515;28;20039;-44
2023/07/31 06:30:55;;;;;;;2.28;1.80;;;15.00;99.90;;;;;;5090641;28;20012;-44
2023/07/31 06:33:20;;;;;;;2.35;1.95;;;15.00;99.90;;;;;;5090073;28;20495;-43
2023/07/31 06:35:46;;;;;;;3.08;1.92;;;15.00;99.90;;;;;;5090110;28;20024;-44
2023/07/31 06:38:11;;;;;;;4.55;2.70;;;15.10;99.90;;;;;;5090141;28;20586;-43
2023/07/31 06:40:37;;;;;;;2.92;2.50;;;15.10;99.90;;;;;;5090210;28;20020;-45
2023/07/31 06:43:07;;;;;;;5.03;2.97;;;15.20;99.90;;;;;;5072066;28;20107;-43
2023/07/31 06:45:37;;;;;;;5.43;3.05;;;15.30;99.90;;;;;;5089935;28;20016;-43
2023/07/31 06:48:03;;;;;;;4.37;3.13;;;15.40;99.90;;;;;;5090110;28;20091;-44
2023/07/31 06:50:30;;;;;;;5.50;3.45;;;15.50;99.90;;;;;;5090002;28;20829;-44
2023/07/31 06:52:56;;;;;;;5.72;3.60;;;15.60;99.90;;;;;;5089873;28;20036;-43
2023/07/31 06:55:23;;;;;;;4.72;3.15;;;15.70;99.90;;;;;;5090047;28;20464;-44
2023/07/31 06:57:50;;;;;;;7.85;4.78;;;15.70;99.90;;;;;;5090434;28;20032;-43
2023/07/31 07:00:17;;;;;;;8.75;3.80;;;15.80;99.90;;;;;;5072318;28;20366;-44
2023/07/31 07:02:43;;;;;;;4.90;3.25;;;15.90;99.90;;;;;;5089899;28;20098;-43
2023/07/31 07:05:09;;;;;;;5.95;3.78;;;15.90;99.90;;;;;;5071829;28;20012;-43
2023/07/31 07:07:35;;;;;;;4.60;3.75;;;16.10;99.90;;;;;;5089916;28;20423;-43
2023/07/31 07:10:00;;;;;;;5.45;3.55;;;16.10;99.90;;;;;;5089817;28;20023;-43
2023/07/31 07:12:29;;;;;;;7.97;4.57;;;16.20;99.90;;;;;;5089803;28;20031;-43
2023/07/31 07:14:54;;;;;;;9.70;4.75;;;16.20;99.90;;;;;;5089264;28;20136;-43
2023/07/31 07:17:20;;;;;;;9.57;6.10;;;16.10;99.90;;;;;;5089531;28;20518;-47
2023/07/31 07:19:47;;;;;;;11.23;5.20;;;16.10;99.90;;;;;;5090070;28;20016;-44
2023/07/31 07:22:13;;;;;;;10.02;6.05;;;16.10;99.90;;;;;;5092779;28;20028;-43
2023/07/31 07:24:38;;;;;;;10.05;6.57;;;16.10;99.90;;;;;;5097565;28;20027;-44
2023/07/31 07:27:04;;;;;;;11.43;6.65;;;16.10;99.90;;;;;;5079041;28;20031;-46
2023/07/31 07:29:29;;;;;;;13.10;6.93;;;16.10;99.90;;;;;;5093451;28;20035;-44
2023/07/31 07:31:55;;;;;;;10.60;7.03;;;16.10;99.90;;;;;;5089215;28;20016;-44
2023/07/31 07:34:24;;;;;;;16.73;7.15;;;16.00;99.90;;;;;;5088177;28;20093;-44
2023/07/31 07:36:49;;;;;;;17.23;7.63;;;16.10;99.90;;;;;;5094015;28;20045;-46
2023/07/31 07:39:15;;;;;;;12.43;7.80;;;16.10;99.90;;;;;;5092918;28;20434;-43
2023/07/31 07:41:40;;;;;;;13.82;8.25;;;16.00;99.90;;;;;;5089190;28;20039;-44
2023/07/31 07:44:07;;;;;;;15.20;8.57;;;16.00;99.90;;;;;;5088720;28;20047;-43
2023/07/31 07:46:32;;;;;;;17.80;9.20;;;16.00;99.90;;;;;;5070792;28;20028;-43
2023/07/31 07:48:58;;;;;;;17.77;9.55;;;16.00;99.90;;;;;;5088631;28;20426;-44
2023/07/31 07:51:23;;;;;;;19.70;9.75;;;16.00;99.90;;;;;;5088760;28;20035;-43
2023/07/31 07:53:49;;;;;;;16.60;10.55;;;15.90;99.90;;;;;;5088134;28;20024;-42
2023/07/31 07:56:14;;;;;;;17.88;10.25;;;15.90;99.90;;;;;;5089089;28;20389;-44
2023/07/31 07:58:40;;;;;;;20.58;11.10;;;16.00;99.90;;;;;;5089334;28;20104;-44
2023/07/31 08:01:05;;;;;;;18.05;10.63;;;16.00;99.90;;;;;;5088744;28;20385;-43
2023/07/31 08:03:31;;;;;;;23.98;11.77;;;16.00;99.90;;;;;;5088570;28;20028;-46
2023/07/31 08:06:00;;;;;;;19.95;11.60;;;16.10;99.90;;;;;;5088903;28;20024;-43
2023/07/31 08:08:26;;;;;;;25.48;12.43;;;16.00;99.90;;;;;;5088922;28;20430;-43
2023/07/31 08:10:51;;;;;;;21.02;12.10;;;16.10;99.90;;;;;;5089279;28;20091;-48
2023/07/31 08:13:17;;;;;;;26.52;12.88;;;16.10;99.90;;;;;;5088841;28;20103;-44
2023/07/31 08:15:43;;;;;;;21.55;12.15;;;16.10;99.90;;;;;;5089138;28;20346;-43
2023/07/31 08:18:09;;;;;;;22.25;12.63;;;16.20;99.90;;;;;;5089020;28;20043;-49
2023/07/31 08:20:34;;;;;;;25.80;12.32;;;16.40;99.90;;;;;;5089050;28;20025;-43
2023/07/31 08:23:00;;;;;;;22.20;12.90;;;16.70;99.90;;;;;;5089146;28;20026;-44
2023/07/31 08:25:26;;;;;;;23.23;12.25;;;17.10;99.90;;;;;;5088839;28;20025;-46
2023/07/31 08:27:52;;;;;;;21.80;12.68;;;17.20;99.90;;;;;;5088862;28;20016;-45
2023/07/31 08:30:18;;;;;;;21.67;10.57;;;17.20;99.90;;;;;;5088849;28;20028;-43
2023/07/31 08:32:44;;;;;;;17.10;10.50;;;17.30;99.90;;;;;;5088642;28;20046;-44
2023/07/31 08:35:09;;;;;;;18.75;11.00;;;17.50;99.90;;;;;;5088498;28;20060;-43
2023/07/31 08:37:35;;;;;;;21.70;11.60;;;17.80;99.90;;;;;;5088635;28;20057;-43
2023/07/31 08:40:00;;;;;;;17.60;9.18;;;18.30;99.90;;;;;;5088216;28;20538;-43
2023/07/31 08:42:26;;;;;;;14.68;8.18;;;18.50;99.90;;;;;;5086184;28;20316;-45
2023/07/31 08:44:53;;;;;;;13.88;8.82;;;18.50;99.90;;;;;;5087656;28;20077;-44
2023/07/31 08:47:21;;;;;;;15.63;8.90;;;18.60;99.90;;;;;;5091988;28;20032;-44
2023/07/31 08:49:48;;;;;;;13.55;7.88;;;18.50;99.90;;;;;;5083458;28;20385;-43
2023/07/31 08:52:14;;;;;;;13.98;8.13;;;18.40;99.90;;;;;;5072990;28;20036;-44
2023/07/31 08:54:40;;;;;;;14.18;6.95;;;18.50;99.90;;;;;;5090757;28;20040;-43
2023/07/31 08:57:07;;;;;;;14.27;7.70;;;18.80;99.90;;;;;;5091160;28;20020;-46
2023/07/31 08:59:34;;;;;;;12.52;6.75;;;19.30;99.90;;;;;;5072789;28;20027;-44
2023/07/31 09:02:07;;;;;;;16.65;7.53;;;19.70;99.90;;;;;;5071169;28;20017;-45
2023/07/31 09:04:33;;;;;;;12.82;6.70;;;19.70;99.90;;;;;;5090718;28;20111;-44
2023/07/31 09:07:04;;;;;;;13.32;6.35;;;19.70;99.90;;;;;;5091496;28;20423;-44
2023/07/31 09:09:30;;;;;;;;;;;19.50;99.90;;;;;;5091879;28;20530;-44
2023/07/31 09:11:57;;;;;;;13.07;6.85;;;19.20;99.90;;;;;;5090983;28;19990;-43
2023/07/31 09:14:26;;;;;;;16.00;6.60;;;19.00;99.90;;;;;;5090579;28;20052;-44
2023/07/31 09:16:54;;;;;;;11.95;6.63;;;18.70;99.90;;;;;;5090790;28;20024;-43
2023/07/31 09:19:27;;;;;;;15.10;6.90;;;18.70;99.90;;;;;;5072674;28;20031;-43
2023/07/31 09:21:53;;;;;;;13.18;7.35;;;18.50;99.90;;;;;;5090893;28;20097;-43
2023/07/31 09:24:27;;;;;;;11.98;7.22;;;18.40;99.90;;;;;;5090337;28;20024;-44
2023/07/31 09:26:58;;;;;;;13.55;7.47;;;18.30;99.90;;;;;;5090742;28;20103;-44
2023/07/31 09:29:24;;;;;;;12.38;6.63;;;18.20;99.90;;;;;;5072189;28;20028;-44
2023/07/31 09:31:50;;;;;;;13.52;6.85;;;18.20;99.90;;;;;;5090559;28;20397;-44
2023/07/31 09:34:16;;;;;;;11.77;7.45;;;18.10;99.90;;;;;;5090099;28;20066;-43
2023/07/31 09:36:53;;;;;;;18.83;6.90;;;18.00;99.90;;;;;;5090295;28;20059;-44
2023/07/31 09:39:20;;;;;;;12.43;6.90;;;17.90;99.90;;;;;;5090653;28;20135;-43
2023/07/31 09:41:53;;;;;;;14.20;7.05;;;17.90;99.90;;;;;;5090616;28;20012;-44
2023/07/31 09:44:18;;;;;;;14.98;7.18;;;17.80;99.90;;;;;;5071683;28;20359;-44
2023/07/31 09:46:44;;;;;;;16.75;8.38;;;17.80;99.90;;;;;;5090268;28;20028;-43
2023/07/31 09:49:11;;;;;;;16.48;7.65;;;17.80;99.90;;;;;;5090384;28;20059;-48
2023/07/31 09:51:42;;;;;;;13.85;7.30;;;17.70;99.90;;;;;;5072051;28;20119;-43
2023/07/31 09:54:16;;;;;;;;;;;17.70;99.90;;;;;;5090106;28;20032;-44
2023/07/31 09:56:45;;;;;;;16.13;7.15;;;17.80;99.90;;;;;;5089905;28;19961;-43
2023/07/31 09:59:18;;;;;;;11.43;6.57;;;17.70;99.90;;;;;;5090265;28;20024;-43
2023/07/31 10:01:46;;;;;;;12.15;6.72;;;17.70;99.90;;;;;;5088057;28;20028;-43
2023/07/31 10:04:12;;;;;;;18.35;7.80;;;17.60;99.90;;;;;;5089634;28;20494;-43
2023/07/31 10:06:40;;;;;;;17.05;9.60;;;17.60;99.90;;;;;;5089974;28;20089;-43
2023/07/31 10:09:07;;;;;;;12.13;6.38;;;17.60;99.90;;;;;;5090081;28;20031;-44
2023/07/31 10:11:50;;;;;;;13.77;5.68;;;17.70;99.90;;;;;;5089641;28;20027;-44
2023/07/31 10:14:16;;;;;;;9.48;5.55;;;17.80;99.90;;;;;;5089625;28;20416;-43
2023/07/31 10:16:43;;;;;;;8.48;5.10;;;18.00;99.90;;;;;;5089575;28;20035;-43
2023/07/31 10:19:09;;;;;;;6.75;4.57;;;18.00;99.90;;;;;;5089762;28;20024;-47
2023/07/31 10:21:37;;;;;;;10.32;4.93;;;18.00;99.90;;;;;;5089825;28;20112;-43
2023/07/31 10:24:06;;;;;;;7.80;4.25;;;17.90;99.90;;;;;;5089448;28;20016;-45
2023/07/31 10:26:33;;;;;;;5.78;4.70;;;18.00;99.90;;;;;;5090204;28;20032;-47
2023/07/31 10:29:00;;;;;;;10.52;4.38;;;18.00;99.90;;;;;;5054449;28;20671;-46
2023/07/31 10:31:27;;;;;;;7.50;4.90;;;18.00;99.90;;;;;;5089380;28;20028;-46
2023/07/31 10:33:54;;;;;;;7.65;4.80;;;18.00;99.90;;;;;;5089007;28;20020;-44
2023/07/31 10:36:20;;;;;;;6.07;4.35;;;17.90;99.90;;;;;;5089308;28;20090;-45
2023/07/31 10:38:48;;;;;;;7.97;4.35;;;18.00;99.90;;;;;;5089328;28;20024;-44
2023/07/31 10:41:14;;;;;;;8.20;3.83;;;18.10;99.90;;;;;;5071396;28;20540;-43
2023/07/31 10:43:40;;;;;;;8.05;4.70;;;18.20;99.90;;;;;;5088743;28;20099;-43
2023/07/31 10:46:11;;;;;;;9.00;4.82;;;18.10;99.90;;;;;;5089376;28;20026;-44
2023/07/31 10:48:41;;;;;;;8.38;4.65;;;18.20;99.90;;;;;;5089202;28;20036;-44
2023/07/31 10:51:15;;;;;;;8.65;4.32;;;18.20;99.90;;;;;;5089064;28;20020;-43
2023/07/31 10:53:41;;;;;;;6.63;4.15;;;18.10;99.90;;;;;;5088458;28;20028;-44
2023/07/31 10:56:18;;;;;;;7.22;4.15;;;18.20;99.90;;;;;;5088820;28;20485;-47
2023/07/31 10:58:46;;;;;;;10.82;4.38;;;18.40;99.90;;;;;;5089035;28;20333;-43
2023/07/31 11:01:11;;;;;;;10.88;4.88;;;18.50;99.90;;;;;;5087094;28;20035;-43
2023/07/31 11:03:51;;;;;;;8.63;4.85;;;18.80;99.90;;;;;;5088628;28;20020;-46
2023/07/31 11:06:17;;;;;;;6.75;3.80;;;19.00;99.90;;;;;;5088820;28;20358;-47
2023/07/31 11:08:48;;;;;;;10.90;4.10;;;19.20;99.90;;;;;;5088096;28;20034;-46
2023/07/31 11:11:15;;;;;;;;;;;19.50;99.90;;;;;;5089052;28;20024;-43
2023/07/31 11:13:49;;;;;;;11.68;4.80;;;19.50;99.90;;;;;;5069976;28;20312;-44
2023/07/31 11:16:14;;;;;;;9.43;4.10;;;19.60;99.90;;;;;;5088215;28;20632;-48
2023/07/31 11:18:42;;;;;;;5.38;3.80;;;19.70;99.90;;;;;;5088171;28;20042;-43
2023/07/31 11:21:08;;;;;;;5.65;3.45;;;19.80;99.90;;;;;;5087630;28;20059;-45
2023/07/31 11:23:37;;;;;;;7.50;3.22;;;19.90;99.90;;;;;;5069734;28;20143;-43
2023/07/31 11:26:24;;;;;;;6.43;3.13;;;19.90;99.90;;;;;;5087587;28;20275;-48
2023/07/31 11:28:50;;;;;;;8.40;3.72;;;20.00;99.90;;;;;;4985631;28;20046;-45
2023/07/31 11:31:16;;;;;;;5.40;3.25;;;20.10;99.90;;;;;;4986290;28;20054;-43
2023/07/31 11:33:42;;;;;;;4.22;3.45;;;20.20;99.90;;;;;;5015836;28;20039;-43
2023/07/31 11:36:15;;;;;;;5.15;3.22;;;20.30;99.90;;;;;;5088332;28;20396;-44
2023/07/31 11:38:40;;;;;;;3.55;2.70;;;20.50;99.90;;;;;;5088480;28;20392;-44
2023/07/31 11:41:06;;;;;;;3.95;2.90;;;21.20;99.90;;;;;;5070066;28;20020;-44
2023/07/31 11:43:32;;;;;;;4.82;3.00;;;22.50;99.90;;;;;;5069702;28;20020;-43
2023/07/31 11:46:02;;;;;;;5.20;3.00;;;23.00;99.90;;;;;;5087902;28;20028;-44
2023/07/31 11:48:33;;;;;;;2.80;2.50;;;23.30;99.90;;;;;;5088288;28;20084;-44
2023/07/31 11:51:01;;;;;;;5.75;2.72;;;23.00;99.90;;;;;;5088294;28;20400;-46
2023/07/31 11:53:41;;;;;;;3.88;3.17;;;23.10;99.90;;;;;;5087824;28;20095;-44
2023/07/31 11:56:11;;;;;;;4.25;2.50;;;23.20;99.90;;;;;;5088028;28;20039;-44
2023/07/31 11:58:37;;;;;;;2.93;2.30;;;22.90;99.90;;;;;;5088137;28;20124;-43
2023/07/31 12:01:04;;;;;;;3.72;2.83;;;22.80;99.90;;;;;;5086143;28;20077;-44
2023/07/31 12:03:29;;;;;;;3.10;2.40;;;22.60;99.90;;;;;;5087927;28;20067;-43
2023/07/31 12:05:55;;;;;;;3.72;2.65;;;22.50;99.90;;;;;;5087592;28;20035;-43
2023/07/31 12:08:23;;;;;;;4.22;2.95;;;22.60;99.90;;;;;;5087940;28;20032;-43
2023/07/31 12:10:50;;;;;;;5.28;2.33;;;22.40;99.90;;;;;;5069689;28;20126;-43
2023/07/31 12:13:26;;;;;;;4.68;2.67;;;22.30;99.90;;;;;;5087803;28;20028;-44
2023/07/31 12:16:01;;;;;;;4.50;2.65;;;22.00;99.90;;;;;;5069502;28;20481;-46
2023/07/31 12:18:30;;;;;;;4.57;2.72;;;21.70;99.90;;;;;;5088060;28;20059;-42
2023/07/31 12:21:00;;;;;;;5.20;2.65;;;21.40;99.90;;;;;;5091523;28;20583;-44
2023/07/31 12:23:31;;;;;;;5.03;2.65;;;21.30;99.90;;;;;;5092201;28;20027;-43
2023/07/31 12:26:08;;;;;;;5.30;2.67;;;21.20;99.90;;;;;;5091959;28;20158;-42
2023/07/31 12:28:42;;;;;;;4.03;3.03;;;21.00;99.90;;;;;;5091807;28;20444;-44
2023/07/31 12:31:17;;;;;;;6.80;2.92;;;20.90;99.90;;;;;;5091826;28;20072;-44
2023/07/31 12:33:43;;;;;;;5.18;3.08;;;20.70;99.90;;;;;;5090809;28;20028;-42
2023/07/31 12:36:11;;;;;;;5.15;2.53;;;20.80;99.90;;;;;;5091480;28;20032;-44
2023/07/31 12:38:37;;;;;;;5.78;3.72;;;20.70;99.90;;;;;;5091822;28;20473;-44
2023/07/31 12:41:02;;;;;;;3.92;2.58;;;20.70;99.90;;;;;;5091575;28;20049;-43
2023/07/31 12:43:28;;;;;;;5.40;2.90;;;20.70;99.90;;;;;;5091571;28;20139;-42